Time;durP1;ratioP1;P1;durP2;ratioP2;P2;SDS_P1;SDS_P2;PMS_P1;PMS_P2;Temp;Humidity;BMP_temperature;BMP_pressure;BME280_temperature;BME280_humidity;BME280_pressure;Samples;Min_cycle;Max_cycle;Signal;HPM_P1;HPM_P2
2022/09/11 00:01:13;;;;;;;10.90;3.20;;;15.10;99.90;;;;;;4992845;28;20475;-86
2022/09/11 00:03:41;;;;;;;4.47;3.10;;;15.10;99.90;;;;;;4976313;28;20453;-85
2022/09/11 00:06:10;;;;;;;4.57;2.83;;;15.20;99.90;;;;;;4989324;28;20433;-86
2022/09/11 00:08:36;;;;;;;3.93;3.20;;;15.20;99.90;;;;;;4994234;28;20506;-83
2022/09/11 00:11:09;;;;;;;5.40;2.70;;;15.20;99.90;;;;;;4993446;28;20491;-85
2022/09/11 00:13:37;;;;;;;4.13;3.30;;;15.20;99.90;;;;;;4976399;28;20433;-85
2022/09/11 00:16:05;;;;;;;10.70;3.10;;;15.20;99.90;;;;;;4989986;28;20516;-86
2022/09/11 00:18:34;;;;;;;5.60;3.57;;;15.60;99.90;;;;;;4982845;28;20835;-86
2022/09/11 00:21:01;;;;;;;7.33;3.20;;;15.20;99.90;;;;;;5001293;28;20461;-84
2022/09/11 00:23:27;;;;;;;4.73;2.93;;;;;;;;;;4985632;28;20438;-85
2022/09/11 00:25:53;;;;;;;6.17;3.00;;;;;;;;;;4990456;28;20444;-84
2022/09/11 00:28:21;;;;;;;4.77;3.10;;;15.10;99.90;;;;;;5004288;28;20433;-85
2022/09/11 00:33:14;;;;;;;9.80;3.57;;;15.00;99.90;;;;;;5029419;22;20489;-87
2022/09/11 00:35:41;;;;;;;10.23;3.10;;;15.00;99.90;;;;;;4997824;28;20539;-88
2022/09/11 00:38:07;;;;;;;5.47;3.70;;;14.90;99.90;;;;;;4998620;28;20440;-89
2022/09/11 00:40:46;;;;;;;5.05;3.33;;;14.90;99.90;;;;;;4999060;28;21223;-87
2022/09/11 00:43:16;;;;;;;8.67;3.60;;;15.00;99.90;;;;;;4979669;28;20213;-86
2022/09/11 00:45:48;;;;;;;6.73;3.73;;;15.70;99.90;;;;;;4983912;28;20429;-89
2022/09/11 00:48:19;;;;;;;8.30;4.50;;;15.00;99.90;;;;;;4975712;28;20440;-87
2022/09/11 00:50:46;;;;;;;3.88;3.45;;;15.00;99.90;;;;;;4994205;28;20448;-88
2022/09/11 00:53:15;;;;;;;13.63;3.38;;;15.10;99.90;;;;;;4974044;28;20206;-88
2022/09/11 00:55:46;;;;;;;4.90;3.80;;;15.10;99.90;;;;;;4982333;28;20182;-87
2022/09/11 00:58:16;;;;;;;7.03;3.40;;;14.90;99.90;;;;;;4994072;28;20453;-87
2022/09/11 01:00:43;;;;;;;7.57;3.23;;;14.90;99.90;;;;;;4976720;28;20474;-87
2022/09/11 01:03:10;;;;;;;9.57;3.50;;;14.90;99.90;;;;;;4977966;28;20485;-89
2022/09/11 01:05:39;;;;;;;6.93;3.70;;;15.00;99.90;;;;;;4976224;28;20434;-87
2022/09/11 01:08:05;;;;;;;6.33;3.80;;;15.00;99.90;;;;;;4996591;28;20486;-87
2022/09/11 01:10:55;;;;;;;6.50;3.50;;;15.10;99.90;;;;;;5004091;28;21716;-87
2022/09/11 01:13:46;;;;;;;8.37;4.17;;;15.20;99.90;;;;;;4977774;28;21005;-88
2022/09/11 01:16:36;;;;;;;9.90;4.30;;;15.10;99.90;;;;;;4973670;28;20437;-88
2022/09/11 01:19:21;;;;;;;5.27;3.77;;;15.10;99.90;;;;;;4973353;28;20484;-87
2022/09/11 01:22:09;;;;;;;4.03;3.63;;;15.10;99.90;;;;;;4988225;28;20448;-87
2022/09/11 01:24:58;;;;;;;4.30;3.87;;;15.10;99.90;;;;;;4972010;28;22172;-88
2022/09/11 01:27:40;;;;;;;8.10;4.47;;;16.90;99.90;;;;;;4967502;28;20531;-88
2022/09/11 01:30:16;;;;;;;7.23;4.33;;;15.10;99.90;;;;;;4967891;28;20438;-87
2022/09/11 01:33:07;;;;;;;5.95;4.30;;;15.10;99.90;;;;;;4987221;28;20472;-87
2022/09/11 01:35:41;;;;;;;8.60;4.33;;;15.10;99.90;;;;;;4984808;28;20183;-85
2022/09/11 01:38:56;;;;;;;6.70;3.97;;;15.10;99.90;;;;;;4987092;28;20424;-87
2022/09/11 01:41:28;;;;;;;8.90;4.63;;;15.10;99.90;;;;;;4922073;28;21264;-86
2022/09/11 01:44:05;;;;;;;7.43;4.20;;;15.10;99.90;;;;;;4969935;28;20555;-88
2022/09/11 01:46:36;;;;;;;10.20;4.30;;;15.10;99.90;;;;;;4984544;28;20445;-85
2022/09/11 01:49:24;;;;;;;9.57;5.27;;;16.10;99.90;;;;;;4976905;28;20509;-86
2022/09/11 01:51:55;;;;;;;5.27;4.03;;;15.10;99.90;;;;;;4989554;28;20507;-85
2022/09/11 01:54:24;;;;;;;6.23;4.03;;;15.10;99.90;;;;;;4965900;28;21595;-87
2022/09/11 01:56:59;;;;;;;5.93;4.83;;;15.10;99.90;;;;;;4977121;28;21031;-87
2022/09/11 01:59:50;;;;;;;9.67;4.33;;;15.20;99.90;;;;;;4971761;28;20433;-87
2022/09/11 02:02:22;;;;;;;5.43;3.80;;;15.20;99.90;;;;;;4971736;28;21110;-87
2022/09/11 02:05:00;;;;;;;11.43;5.23;;;15.20;99.90;;;;;;4975705;28;20437;-86
2022/09/11 02:07:55;;;;;;;7.37;5.20;;;15.20;99.90;;;;;;4972165;28;21036;-86
2022/09/11 02:10:37;;;;;;;7.67;4.37;;;15.20;99.90;;;;;;4969221;28;20434;-87
2022/09/11 02:13:30;;;;;;;5.83;5.13;;;15.30;99.90;;;;;;4975297;28;20661;-89
2022/09/11 02:16:19;;;;;;;9.00;4.53;;;15.50;99.90;;;;;;4996910;28;20429;-87
2022/09/11 02:19:10;;;;;;;7.43;5.00;;;15.50;99.90;;;;;;4973610;28;20446;-87
2022/09/11 02:21:36;;;;;;;9.13;4.73;;;15.50;99.90;;;;;;4969034;28;20492;-88
2022/09/11 02:24:03;;;;;;;11.70;4.70;;;15.40;99.90;;;;;;4987829;28;22117;-87
2022/09/11 02:26:33;;;;;;;5.93;5.20;;;15.40;99.90;;;;;;4989409;28;21561;-86
2022/09/11 02:28:58;;;;;;;7.90;5.20;;;15.40;99.90;;;;;;4971266;28;20802;-87
2022/09/11 02:31:25;;;;;;;5.40;4.60;;;;;;;;;;4989298;28;20226;-88
2022/09/11 02:33:51;;;;;;;8.10;4.97;;;;;;;;;;4993055;28;20180;-86
2022/09/11 02:36:17;;;;;;;7.43;5.23;;;;;;;;;;4982813;28;20454;-87
2022/09/11 02:39:00;;;;;;;4.60;4.20;;;15.40;99.90;;;;;;4991406;28;20519;-86
2022/09/11 02:41:54;;;;;;;5.10;4.60;;;15.40;99.90;;;;;;4972752;28;20461;-86
2022/09/11 02:44:55;;;;;;;7.90;5.00;;;15.50;99.90;;;;;;4951028;28;20440;-90
2022/09/11 02:47:41;;;;;;;6.83;5.37;;;15.40;99.90;;;;;;4970187;28;20425;-86
2022/09/11 02:50:25;;;;;;;9.20;4.50;;;15.40;99.90;;;;;;4974132;28;21998;-87
2022/09/11 02:53:11;;;;;;;6.00;4.70;;;15.40;99.90;;;;;;4977578;28;20491;-86
2022/09/11 02:55:50;;;;;;;7.57;4.97;;;15.40;99.90;;;;;;4978339;28;20429;-87
2022/09/11 02:58:19;;;;;;;5.10;4.60;;;15.40;99.90;;;;;;4973895;28;20429;-88
2022/09/11 03:00:46;;;;;;;9.53;4.93;;;15.50;99.90;;;;;;4980873;28;21440;-86
2022/09/11 03:03:12;;;;;;;5.33;4.53;;;;;;;;;;4974954;28;23095;-88
2022/09/11 03:05:39;;;;;;;5.30;4.80;;;15.60;99.90;;;;;;4995490;28;20425;-86
2022/09/11 03:08:06;;;;;;;6.80;5.10;;;;;;;;;;4996494;28;20459;-89
2022/09/11 03:10:31;;;;;;;6.60;5.27;;;15.50;99.90;;;;;;4979764;28;20495;-89
2022/09/11 03:12:58;;;;;;;6.10;4.80;;;15.50;99.90;;;;;;4969187;28;20512;-88
2022/09/11 03:15:24;;;;;;;9.70;5.37;;;15.50;99.90;;;;;;4976625;28;20213;-86
2022/09/11 03:17:50;;;;;;;12.03;5.50;;;15.50;99.90;;;;;;4975488;28;20430;-86
2022/09/11 03:20:16;;;;;;;5.70;5.03;;;15.50;99.90;;;;;;5001682;28;20491;-87
2022/09/11 03:22:42;;;;;;;5.83;4.60;;;15.40;99.90;;;;;;4976727;28;20978;-89
2022/09/11 03:25:09;;;;;;;7.43;5.70;;;15.40;99.90;;;;;;4991352;28;20527;-88
2022/09/11 03:27:37;;;;;;;9.80;5.73;;;;;;;;;;4993792;28;20430;-87
2022/09/11 03:30:04;;;;;;;6.60;5.63;;;15.30;99.90;;;;;;4997545;28;20457;-87
2022/09/11 03:32:31;;;;;;;7.87;6.13;;;15.20;99.90;;;;;;4981133;28;20576;-87
2022/09/11 03:35:01;;;;;;;8.33;6.23;;;15.20;99.90;;;;;;4976703;28;20429;-89
2022/09/11 03:37:27;;;;;;;7.97;6.10;;;;;;;;;;4998239;28;20422;-89
2022/09/11 03:39:53;;;;;;;10.87;5.97;;;;;;;;;;4974376;28;20980;-87
2022/09/11 03:42:19;;;;;;;6.27;5.67;;;;;;;;;;4975809;28;20563;-88
2022/09/11 03:44:45;;;;;;;6.20;5.43;;;15.10;99.90;;;;;;4975187;28;20454;-87
2022/09/11 03:47:11;;;;;;;9.30;7.00;;;;;;;;;;4978591;28;20468;-89
2022/09/11 03:49:36;;;;;;;12.20;6.90;;;15.10;99.90;;;;;;4994667;28;20244;-88
2022/09/11 03:52:03;;;;;;;15.03;6.43;;;15.20;99.90;;;;;;4975985;28;20535;-87
2022/09/11 03:54:30;;;;;;;10.13;6.10;;;;;;;;;;4980208;28;20658;-89
2022/09/11 03:56:57;;;;;;;11.70;6.67;;;;;;;;;;4986097;28;20429;-88
2022/09/11 03:59:24;;;;;;;9.23;6.33;;;;;;;;;;4997038;28;20698;-87
2022/09/11 04:01:50;;;;;;;7.97;5.93;;;;;;;;;;4989394;28;20466;-89
2022/09/11 04:04:16;;;;;;;17.37;7.33;;;;;;;;;;4978133;28;20453;-88
2022/09/11 04:06:43;;;;;;;6.70;5.30;;;15.30;99.90;;;;;;4973190;28;20970;-87
2022/09/11 04:09:09;;;;;;;7.27;6.30;;;;;;;;;;4976105;28;20437;-88
2022/09/11 04:11:37;;;;;;;13.53;7.57;;;;;;;;;;4991869;28;20517;-89
2022/09/11 04:14:03;;;;;;;12.10;6.60;;;;;;;;;;4969369;28;20438;-86
2022/09/11 04:16:31;;;;;;;10.27;6.47;;;;;;;;;;4975697;28;20433;-87
2022/09/11 04:18:58;;;;;;;9.83;5.00;;;15.40;99.90;;;;;;4996357;28;20421;-87
2022/09/11 04:21:26;;;;;;;9.50;6.17;;;;;;;;;;4980595;28;20461;-87
2022/09/11 04:23:55;;;;;;;6.20;5.10;;;15.40;99.90;;;;;;4975884;28;20447;-88
2022/09/11 04:26:22;;;;;;;9.80;6.53;;;15.50;99.90;;;;;;4974580;28;20529;-88
2022/09/11 04:28:49;;;;;;;11.73;5.83;;;;;;;;;;4989720;28;20441;-89
2022/09/11 04:31:16;;;;;;;7.23;5.40;;;15.40;99.90;;;;;;4974898;28;21013;-88
2022/09/11 04:33:42;;;;;;;6.33;5.73;;;15.30;99.90;;;;;;4976956;28;20439;-87
2022/09/11 04:36:11;;;;;;;6.17;5.43;;;15.50;99.90;;;;;;4980000;28;20442;-88
2022/09/11 04:38:39;;;;;;;8.47;6.47;;;15.40;99.90;;;;;;4983940;28;20445;-88
2022/09/11 04:41:06;;;;;;;6.30;5.70;;;15.40;99.90;;;;;;4972491;28;21346;-86
2022/09/11 04:43:33;;;;;;;8.23;5.55;;;15.40;99.90;;;;;;4992152;28;20190;-87
2022/09/11 04:46:04;;;;;;;10.18;7.05;;;15.40;99.90;;;;;;4976401;28;20186;-90
2022/09/11 04:48:30;;;;;;;11.63;6.43;;;;;;;;;;4994589;28;20250;-89
2022/09/11 04:51:05;;;;;;;13.67;6.87;;;15.40;99.90;;;;;;4992280;28;21819;-85
2022/09/11 04:53:31;;;;;;;7.30;6.03;;;;;;;;;;4975569;28;20433;-87
2022/09/11 04:56:04;;;;;;;11.75;6.22;;;15.40;99.90;;;;;;4983174;28;20541;-86
2022/09/11 04:58:30;;;;;;;8.37;6.10;;;;;;;;;;4976766;28;20187;-88
2022/09/11 05:00:57;;;;;;;14.00;7.47;;;;;;;;;;4973131;28;20460;-88
2022/09/11 05:03:23;;;;;;;9.23;6.70;;;;;;;;;;4998110;28;20190;-88
2022/09/11 05:05:49;;;;;;;8.80;6.60;;;15.30;99.90;;;;;;4982645;28;20417;-89
2022/09/11 05:08:17;;;;;;;15.77;6.63;;;;;;;;;;4978447;28;20499;-85
2022/09/11 05:10:43;;;;;;;7.67;6.87;;;;;;;;;;4976245;28;20276;-87
2022/09/11 05:13:09;;;;;;;14.93;6.83;;;;;;;;;;4995536;28;21522;-86
2022/09/11 05:15:35;;;;;;;10.33;6.17;;;;;;;;;;4983147;28;20460;-87
2022/09/11 05:18:03;;;;;;;9.73;6.77;;;;;;;;;;4981295;28;20437;-88
2022/09/11 05:20:29;;;;;;;7.43;6.17;;;;;;;;;;4981199;28;20472;-87
2022/09/11 05:22:57;;;;;;;13.70;7.50;;;;;;;;;;4987625;28;20454;-88
2022/09/11 05:25:24;;;;;;;10.57;7.90;;;;;;;;;;5006881;28;20658;-85
2022/09/11 05:27:50;;;;;;;13.97;8.00;;;;;;;;;;4983519;28;20532;-87
2022/09/11 05:30:16;;;;;;;10.37;6.60;;;;;;;;;;4987402;28;20540;-88
2022/09/11 05:32:42;;;;;;;13.03;8.57;;;;;;;;;;4976810;28;20671;-87
2022/09/11 05:35:08;;;;;;;11.73;8.40;;;;;;;;;;4980951;28;20500;-88
2022/09/11 05:37:34;;;;;;;9.87;7.83;;;;;;;;;;4975017;28;20434;-87
2022/09/11 05:40:01;;;;;;;15.90;8.30;;;15.40;99.90;;;;;;4978347;28;20435;-88
2022/09/11 05:42:27;;;;;;;11.17;6.77;;;;;;;;;;4978730;28;20473;-87
2022/09/11 05:44:53;;;;;;;9.70;7.10;;;;;;;;;;4999623;28;20460;-88
2022/09/11 05:47:19;;;;;;;12.33;8.30;;;;;;;;;;4983602;28;20441;-89
2022/09/11 05:49:45;;;;;;;9.00;6.83;;;;;;;;;;4983133;28;20559;-87
2022/09/11 05:52:11;;;;;;;8.87;7.73;;;15.50;99.90;;;;;;4978589;28;20479;-88
2022/09/11 05:54:37;;;;;;;8.87;7.77;;;;;;;;;;4999163;28;20434;-89
2022/09/11 05:57:03;;;;;;;12.83;7.17;;;;;;;;;;4995881;28;20238;-88
2022/09/11 05:59:30;;;;;;;12.67;7.50;;;;;;;;;;4994798;28;21452;-89
2022/09/11 06:01:55;;;;;;;8.47;7.43;;;;;;;;;;4975595;28;20617;-87
2022/09/11 06:04:21;;;;;;;11.67;8.70;;;;;;;;;;4974217;28;20968;-87
2022/09/11 06:06:47;;;;;;;8.57;7.13;;;;;;;;;;4975620;28;20434;-88
2022/09/11 06:09:14;;;;;;;9.73;7.87;;;;;;;;;;4979741;28;20434;-87
2022/09/11 06:11:42;;;;;;;8.37;6.20;;;15.70;99.90;;;;;;4983117;28;20469;-88
2022/09/11 06:14:08;;;;;;;10.13;7.87;;;;;;;;;;4982076;28;20429;-88
2022/09/11 06:16:34;;;;;;;13.43;7.73;;;15.70;99.90;;;;;;4983304;28;20438;-85
2022/09/11 06:19:00;;;;;;;9.90;7.43;;;;;;;;;;4985889;28;20500;-89
2022/09/11 06:21:28;;;;;;;9.47;8.00;;;;;;;;;;4983346;28;20493;-86
2022/09/11 06:23:53;;;;;;;15.23;8.93;;;;;;;;;;4996847;28;20458;-87
2022/09/11 06:26:22;;;;;;;10.87;8.20;;;15.70;99.90;;;;;;4980599;28;20484;-87
2022/09/11 06:28:52;;;;;;;12.43;8.27;;;15.70;99.90;;;;;;4982964;28;20547;-88
2022/09/11 06:31:20;;;;;;;13.17;10.73;;;15.70;99.90;;;;;;4983910;28;20469;-89
2022/09/11 06:33:46;;;;;;;11.83;9.23;;;;;;;;;;4986729;28;20437;-90
2022/09/11 06:36:12;;;;;;;11.50;9.00;;;;;;;;;;4989228;28;20444;-89
2022/09/11 06:38:38;;;;;;;15.83;10.73;;;;;;;;;;4980724;28;20429;-88
2022/09/11 06:41:06;;;;;;;13.43;9.07;;;15.90;99.90;;;;;;4983817;28;20964;-88
2022/09/11 06:43:32;;;;;;;11.80;9.50;;;;;;;;;;4984108;28;20983;-90
2022/09/11 06:46:05;;;;;;;16.67;9.63;;;16.10;99.90;;;;;;4999716;28;20464;-88
2022/09/11 06:48:31;;;;;;;12.93;9.50;;;;;;;;;;4982410;28;20445;-88
2022/09/11 06:51:01;;;;;;;9.40;7.90;;;16.20;99.90;;;;;;4977393;28;21610;-87
2022/09/11 06:53:27;;;;;;;10.40;8.60;;;;;;;;;;4996469;28;20425;-88
2022/09/11 06:55:58;;;;;;;9.63;8.47;;;16.20;99.90;;;;;;4981417;28;20445;-89
2022/09/11 06:58:24;;;;;;;13.13;8.00;;;;;;;;;;4996387;28;20425;-87
2022/09/11 07:00:50;;;;;;;10.20;7.27;;;;;;;;;;4998990;28;20516;-87
2022/09/11 07:03:16;;;;;;;13.40;7.80;;;;;;;;;;4983851;28;21875;-87
2022/09/11 07:05:51;;;;;;;11.77;7.60;;;16.50;99.90;;;;;;4974961;28;20533;-88
2022/09/11 07:08:18;;;;;;;11.10;7.53;;;;;;;;;;4980821;28;20451;-89
2022/09/11 07:10:44;;;;;;;8.53;7.63;;;;;;;;;;4974665;28;20468;-87
2022/09/11 07:13:11;;;;;;;12.53;7.90;;;;;;;;;;4973165;28;20461;-87
2022/09/11 07:15:37;;;;;;;14.63;8.60;;;;;;;;;;4975062;28;21194;-86
2022/09/11 07:18:04;;;;;;;9.17;7.27;;;;;;;;;;4977773;28;20437;-87
2022/09/11 07:20:30;;;;;;;10.83;8.57;;;;;;;;;;4995902;28;20507;-88
2022/09/11 07:22:57;;;;;;;11.83;8.20;;;;;;;;;;4993312;28;20446;-88
2022/09/11 07:25:23;;;;;;;16.60;7.20;;;;;;;;;;4991975;28;20452;-87
2022/09/11 07:27:50;;;;;;;8.70;7.40;;;17.00;99.90;;;;;;4976402;28;20433;-87
2022/09/11 07:30:17;;;;;;;7.17;6.47;;;;;;;;;;4991926;28;20438;-89
2022/09/11 07:32:43;;;;;;;13.20;8.57;;;;;;;;;;4973608;28;20489;-88
2022/09/11 07:35:09;;;;;;;10.43;8.63;;;;;;;;;;4979213;28;20973;-87
2022/09/11 07:37:35;;;;;;;8.57;7.30;;;;;;;;;;4973434;28;20433;-89
2022/09/11 07:40:02;;;;;;;15.03;7.53;;;;;;;;;;4977436;28;20434;-86
2022/09/11 07:42:32;;;;;;;7.43;6.30;;;19.80;99.90;;;;;;4972864;28;20461;-86
2022/09/11 07:44:58;;;;;;;12.63;7.00;;;;;;;;;;4975038;28;20453;-85
2022/09/11 07:47:24;;;;;;;12.90;8.37;;;;;;;;;;4984977;28;20476;-87
2022/09/11 07:49:50;;;;;;;10.70;7.50;;;;;;;;;;4982685;28;20543;-88
2022/09/11 07:52:19;;;;;;;8.53;7.10;;;18.80;99.90;;;;;;4986723;28;20473;-88
2022/09/11 07:54:45;;;;;;;11.90;8.87;;;;;;;;;;4984694;28;20434;-88
2022/09/11 07:57:12;;;;;;;9.90;8.37;;;;;;;;;;4983543;28;20425;-87
2022/09/11 07:59:38;;;;;;;11.47;8.30;;;;;;;;;;5003797;28;20433;-86
2022/09/11 08:02:04;;;;;;;11.53;8.60;;;;;;;;;;4986405;28;20453;-88
2022/09/11 08:04:30;;;;;;;19.10;8.97;;;;;;;;;;5010331;28;20954;-90
2022/09/11 08:06:56;;;;;;;11.03;7.83;;;;;;;;;;5008983;28;20437;-89
2022/09/11 08:09:22;;;;;;;11.93;8.50;;;;;;;;;;5003028;28;20436;-88
2022/09/11 08:11:48;;;;;;;11.00;8.00;;;;;;;;;;4981973;28;20472;-88
2022/09/11 08:14:16;;;;;;;9.53;7.60;;;;;;;;;;4981686;28;20446;-87
2022/09/11 08:16:42;;;;;;;8.00;7.10;;;;;;;;;;5023663;22;20519;-88
2022/09/11 08:19:15;;;;;;;8.57;7.27;;;20.20;99.90;;;;;;4980529;28;20440;-87
2022/09/11 08:21:41;;;;;;;11.43;7.40;;;20.10;99.90;;;;;;4971634;28;20545;-87
2022/09/11 08:24:07;;;;;;;9.40;7.10;;;;;;;;;;4991791;28;20564;-86
2022/09/11 08:26:35;;;;;;;11.77;9.20;;;19.20;99.90;;;;;;4987186;28;20207;-87
2022/09/11 08:29:01;;;;;;;13.10;8.03;;;;;;;;;;4967649;28;20871;-86
2022/09/11 08:31:28;;;;;;;11.87;8.70;;;19.80;99.90;;;;;;4977538;28;20465;-87
2022/09/11 08:33:54;;;;;;;11.87;8.33;;;20.10;99.90;;;;;;4990863;28;20445;-86
2022/09/11 08:36:22;;;;;;;10.10;7.63;;;19.50;99.90;;;;;;4988868;28;20457;-86
2022/09/11 08:38:48;;;;;;;11.53;7.60;;;;;;;;;;4991984;28;20493;-88
2022/09/11 08:41:23;;;;;;;11.03;8.57;;;19.40;99.90;;;;;;4977065;28;20456;-85
2022/09/11 08:43:55;;;;;;;9.13;8.23;;;19.10;99.90;;;;;;4982104;28;20441;-87
2022/09/11 08:46:25;;;;;;;13.93;8.43;;;20.00;99.90;;;;;;4974951;28;21092;-86
2022/09/11 08:49:10;;;;;;;10.33;7.10;;;22.30;99.90;;;;;;4992327;28;20441;-86
2022/09/11 08:51:36;;;;;;;9.57;6.80;;;;;;;;;;4989896;28;20460;-87
2022/09/11 08:54:02;;;;;;;10.30;8.30;;;21.20;99.90;;;;;;4988552;28;20456;-88
2022/09/11 08:56:29;;;;;;;8.70;7.27;;;21.00;99.90;;;;;;4985971;28;20451;-86
2022/09/11 08:59:04;;;;;;;11.30;7.43;;;21.40;99.90;;;;;;4975558;28;20442;-84
2022/09/11 09:01:30;;;;;;;7.87;6.80;;;;;;;;;;4991601;28;20433;-85
2022/09/11 09:04:14;;;;;;;9.03;6.33;;;23.20;99.90;;;;;;4987319;28;20473;-87
2022/09/11 09:06:58;;;;;;;7.73;7.00;;;23.70;99.90;;;;;;4973974;28;20489;-86
2022/09/11 09:09:44;;;;;;;10.53;6.40;;;22.00;99.90;;;;;;4977992;28;20449;-86
2022/09/11 09:12:44;;;;;;;9.90;6.77;;;22.00;99.90;;;;;;4989290;28;20569;-88
2022/09/11 09:15:33;;;;;;;8.90;7.43;;;19.80;99.90;;;;;;4977702;28;20445;-86
2022/09/11 09:18:11;;;;;;;10.87;7.77;;;19.40;99.90;;;;;;4978075;28;20438;-87
2022/09/11 09:20:43;;;;;;;8.50;7.60;;;19.40;99.90;;;;;;4977828;28;20484;-86
2022/09/11 09:23:23;;;;;;;10.10;8.50;;;18.90;99.90;;;;;;4981875;28;20438;-85
2022/09/11 09:25:51;;;;;;;10.43;7.43;;;18.80;99.90;;;;;;4986758;28;22654;-86
2022/09/11 09:28:25;;;;;;;9.60;8.10;;;18.90;99.90;;;;;;4976008;28;20520;-86
2022/09/11 09:31:04;;;;;;;10.67;9.37;;;18.80;99.90;;;;;;4978230;28;20441;-86
2022/09/11 09:33:36;;;;;;;10.20;8.60;;;18.60;99.90;;;;;;4982341;28;20463;-86
2022/09/11 09:36:23;;;;;;;10.10;8.00;;;18.40;99.90;;;;;;4983645;28;20463;-85
2022/09/11 09:38:48;;;;;;;12.60;9.40;;;18.30;99.90;;;;;;4987684;28;20497;-87
2022/09/11 09:41:27;;;;;;;12.70;9.13;;;18.10;99.90;;;;;;5002972;28;20461;-87
2022/09/11 09:44:03;;;;;;;13.40;10.03;;;17.70;99.90;;;;;;4991542;28;20191;-87
2022/09/11 09:46:40;;;;;;;11.53;9.43;;;17.50;99.90;;;;;;4970273;28;21029;-86
2022/09/11 09:49:09;;;;;;;15.30;9.40;;;17.50;99.90;;;;;;4978300;28;20429;-84
2022/09/11 09:51:35;;;;;;;13.37;9.37;;;;;;;;;;4975934;28;20511;-87
2022/09/11 09:54:01;;;;;;;15.73;9.83;;;;;;;;;;4978219;28;20437;-87
2022/09/11 09:56:30;;;;;;;11.37;9.03;;;19.90;99.90;;;;;;4966617;28;21437;-86
2022/09/11 09:59:12;;;;;;;10.73;8.83;;;21.10;99.90;;;;;;4985464;28;20433;-86
2022/09/11 10:01:43;;;;;;;10.77;7.10;;;21.90;99.90;;;;;;4978591;28;20516;-87
2022/09/11 10:04:26;;;;;;;13.70;8.33;;;21.60;99.90;;;;;;4981643;28;20586;-86
2022/09/11 10:07:04;;;;;;;9.53;7.40;;;21.00;99.90;;;;;;4988361;28;20531;-85
2022/09/11 10:09:30;;;;;;;11.07;8.90;;;;;;;;;;4976910;28;20441;-85
2022/09/11 10:11:57;;;;;;;12.13;8.70;;;;;;;;;;4974594;28;20503;-86
2022/09/11 10:14:24;;;;;;;12.83;8.90;;;;;;;;;;4995462;28;20453;-85
2022/09/11 10:16:50;;;;;;;12.70;9.27;;;;;;;;;;4985918;28;20528;-84
2022/09/11 10:19:45;;;;;;;15.10;10.93;;;19.20;99.90;;;;;;4993148;28;20805;-85
2022/09/11 10:22:21;;;;;;;12.73;10.13;;;18.80;99.90;;;;;;4973773;28;20454;-86
2022/09/11 10:24:59;;;;;;;12.63;10.33;;;19.60;99.90;;;;;;4970823;28;20464;-86
2022/09/11 10:27:26;;;;;;;14.00;11.10;;;19.10;99.90;;;;;;4980216;28;20468;-86
2022/09/11 10:29:53;;;;;;;12.57;10.70;;;19.00;99.90;;;;;;4949302;28;20527;-85
2022/09/11 10:32:19;;;;;;;13.03;10.70;;;18.80;99.90;;;;;;4980977;28;20469;-87
2022/09/11 10:34:46;;;;;;;15.27;11.70;;;;;;;;;;4979018;28;20500;-86
2022/09/11 10:37:15;;;;;;;11.77;9.97;;;19.00;99.90;;;;;;4993010;28;20461;-87
2022/09/11 10:39:43;;;;;;;11.60;8.73;;;19.40;99.90;;;;;;4980224;28;20442;-86
2022/09/11 10:42:10;;;;;;;14.43;9.13;;;;;;;;;;4982611;28;20504;-87
2022/09/11 10:44:36;;;;;;;15.63;9.70;;;;;;;;;;4985967;28;21409;-86
2022/09/11 10:47:20;;;;;;;16.13;10.50;;;20.60;99.90;;;;;;5018485;28;20458;-85
2022/09/11 10:49:47;;;;;;;9.77;8.63;;;;;;;;;;5012813;28;20446;-83
2022/09/11 10:52:13;;;;;;;10.00;9.03;;;;;;;;;;4980512;28;20465;-87
2022/09/11 10:55:02;;;;;;;12.40;9.67;;;21.90;99.90;;;;;;4984274;28;20951;-85
2022/09/11 10:57:46;;;;;;;13.73;10.10;;;21.40;99.90;;;;;;4993293;28;20504;-84
2022/09/11 11:00:29;;;;;;;14.47;10.57;;;21.00;99.90;;;;;;4992338;28;20481;-86
2022/09/11 11:02:59;;;;;;;12.53;10.37;;;21.30;99.90;;;;;;4996287;28;20604;-85
2022/09/11 11:06:08;;;;;;;13.50;9.47;;;22.30;99.90;;;;;;4997371;28;20457;-85
2022/09/11 11:08:34;;;;;;;13.33;9.50;;;;;;;;;;4996753;28;20512;-86
2022/09/11 11:11:14;;;;;;;10.17;9.07;;;23.60;99.90;;;;;;5009208;28;20779;-86
2022/09/11 11:14:12;;;;;;;8.43;7.53;;;23.90;99.90;;;;;;4996566;28;20437;-84
2022/09/11 11:16:59;;;;;;;12.20;7.77;;;24.20;99.90;;;;;;4985279;28;20495;-86
2022/09/11 11:19:45;;;;;;;8.80;7.50;;;24.60;99.90;;;;;;4998285;28;20437;-88
2022/09/11 11:22:42;;;;;;;11.70;8.83;;;24.40;99.90;;;;;;4997896;28;20432;-85
2022/09/11 11:25:33;;;;;;;12.07;8.33;;;24.50;99.90;;;;;;4992155;28;20438;-87
2022/09/11 11:28:07;;;;;;;8.70;6.97;;;23.20;99.90;;;;;;4989252;28;20445;-84
2022/09/11 11:30:54;;;;;;;10.83;8.17;;;23.20;99.90;;;;;;4994182;28;20442;-85
2022/09/11 11:33:50;;;;;;;11.20;7.83;;;22.40;99.90;;;;;;4993938;28;20469;-85
2022/09/11 11:36:36;;;;;;;10.13;9.03;;;21.00;99.90;;;;;;4998989;28;20471;-85
2022/09/11 11:39:26;;;;;;;11.63;9.17;;;20.00;99.90;;;;;;4994011;28;20464;-86
2022/09/11 11:42:06;;;;;;;10.93;9.47;;;19.30;99.90;;;;;;4981982;28;20441;-85
2022/09/11 11:44:47;;;;;;;14.50;10.60;;;18.60;99.90;;;;;;4997521;28;20458;-86
2022/09/11 11:47:15;;;;;;;12.30;9.73;;;18.60;99.90;;;;;;5001681;28;20463;-86
2022/09/11 11:50:14;;;;;;;13.67;10.27;;;18.60;99.90;;;;;;4984675;28;20473;-87
2022/09/11 11:52:57;;;;;;;10.70;8.73;;;18.40;99.90;;;;;;4979779;28;20453;-87
2022/09/11 11:55:25;;;;;;;10.50;9.40;;;18.40;99.90;;;;;;4997865;28;21042;-87
2022/09/11 11:58:03;;;;;;;11.03;9.83;;;18.30;99.90;;;;;;4994635;28;20436;-86
2022/09/11 12:00:32;;;;;;;10.80;9.17;;;18.80;99.90;;;;;;4987318;28;21539;-85
2022/09/11 12:03:14;;;;;;;9.77;8.60;;;19.20;99.90;;;;;;5001238;28;20421;-85
2022/09/11 12:05:40;;;;;;;16.63;9.73;;;;;;;;;;4998433;28;20492;-85
2022/09/11 12:08:12;;;;;;;10.73;9.37;;;19.10;99.90;;;;;;4995937;28;20442;-86
2022/09/11 12:10:41;;;;;;;11.20;9.90;;;19.10;99.90;;;;;;4997577;28;20460;-87
2022/09/11 12:13:16;;;;;;;10.40;8.53;;;19.20;99.90;;;;;;4985367;28;20474;-85
2022/09/11 12:16:01;;;;;;;11.67;8.67;;;19.30;99.90;;;;;;4994521;28;20491;-87
2022/09/11 12:18:27;;;;;;;13.80;9.03;;;19.60;99.90;;;;;;4987350;28;20991;-85
2022/09/11 12:21:33;;;;;;;9.87;8.20;;;19.90;99.90;;;;;;4989460;28;20556;-85
2022/09/11 12:24:01;;;;;;;9.27;8.30;;;20.00;99.90;;;;;;4991035;28;20429;-87
2022/09/11 12:26:29;;;;;;;10.97;9.07;;;20.60;99.90;;;;;;4974805;28;20469;-90
2022/09/11 12:29:10;;;;;;;9.37;8.13;;;20.60;99.90;;;;;;4967949;28;20437;-87
2022/09/11 12:31:48;;;;;;;10.87;9.80;;;20.60;99.90;;;;;;4989839;28;20795;-88
2022/09/11 12:34:24;;;;;;;10.53;8.90;;;21.10;99.90;;;;;;4973407;28;20441;-89
2022/09/11 12:36:55;;;;;;;10.90;9.30;;;20.80;99.90;;;;;;4991600;28;20457;-90
2022/09/11 12:39:52;;;;;;;12.90;8.87;;;20.60;99.90;;;;;;4985170;28;20429;-85
2022/09/11 12:42:21;;;;;;;13.27;9.10;;;20.70;99.90;;;;;;4979681;28;20434;-89
2022/09/11 12:44:47;;;;;;;7.90;7.13;;;;;;;;;;4980004;28;20446;-89
2022/09/11 12:47:37;;;;;;;8.03;6.77;;;21.30;99.90;;;;;;4983764;28;20444;-88
2022/09/11 12:50:03;;;;;;;12.27;7.80;;;21.30;99.90;;;;;;4991231;28;20466;-88
2022/09/11 12:52:43;;;;;;;8.43;7.40;;;21.80;99.90;;;;;;4992799;28;21136;-87
2022/09/11 12:55:42;;;;;;;17.33;7.70;;;22.40;99.90;;;;;;4988003;28;20210;-89
2022/09/11 12:58:19;;;;;;;7.50;6.70;;;23.50;99.90;;;;;;4990862;28;20501;-89
2022/09/11 13:00:47;;;;;;;5.73;5.23;;;24.30;99.90;;;;;;4991107;28;20496;-88
2022/09/11 13:03:32;;;;;;;6.90;5.50;;;24.30;99.90;;;;;;4984705;28;20446;-88
2022/09/11 13:06:05;;;;;;;8.80;5.70;;;23.10;99.90;;;;;;4993432;28;21021;-86
2022/09/11 13:08:44;;;;;;;7.47;6.60;;;23.10;99.90;;;;;;4979202;28;20465;-88
2022/09/11 13:11:40;;;;;;;6.87;5.87;;;23.20;99.90;;;;;;4987629;28;20457;-86
2022/09/11 13:14:28;;;;;;;7.17;6.00;;;23.00;99.90;;;;;;4984685;28;20450;-86
2022/09/11 13:17:01;;;;;;;7.68;6.90;;;23.20;99.90;;;;;;4945527;28;1016155;-85
2022/09/11 13:19:35;;;;;;;6.33;5.67;;;23.50;99.90;;;;;;4985109;28;21233;-85
2022/09/11 13:22:21;;;;;;;9.40;5.77;;;23.40;99.90;;;;;;4984581;28;20451;-85
2022/09/11 13:24:47;;;;;;;6.70;6.00;;;;;;;;;;4980451;28;20453;-86
2022/09/11 13:27:27;;;;;;;5.40;4.60;;;23.60;99.90;;;;;;4985854;28;20465;-85
2022/09/11 13:29:59;;;;;;;6.33;4.90;;;23.90;99.90;;;;;;4969778;28;20466;-88
2022/09/11 13:32:24;;;;;;;6.60;5.87;;;23.90;99.90;;;;;;4993812;28;20452;-84
2022/09/11 13:35:00;;;;;;;5.40;4.67;;;23.10;99.90;;;;;;5000295;28;20477;-84
2022/09/11 13:37:38;;;;;;;5.70;5.07;;;23.00;99.90;;;;;;5005099;28;20206;-84
2022/09/11 13:40:06;;;;;;;7.60;5.07;;;23.20;99.90;;;;;;4998226;28;20430;-84
2022/09/11 13:42:34;;;;;;;6.37;5.63;;;23.20;99.90;;;;;;4994526;28;20445;-88
2022/09/11 13:45:02;;;;;;;7.23;4.70;;;23.00;99.90;;;;;;4983771;28;20442;-86
2022/09/11 13:47:30;;;;;;;7.13;5.63;;;23.60;99.90;;;;;;4974160;28;21490;-85